createdAt,value
2018-05-02T00:00:13.995Z,8.07
2018-05-02T00:01:14.018Z,8.07
2018-05-02T00:02:14.029Z,8.02
2018-05-02T00:03:14.090Z,7.90
2018-05-02T00:04:14.082Z,8.01
2018-05-02T00:05:14.069Z,7.95
2018-05-02T00:06:14.084Z,7.93
2018-05-02T00:07:14.096Z,8.00
2018-05-02T00:08:14.110Z,8.01
2018-05-02T00:09:14.124Z,8.02
2018-05-02T00:10:14.219Z,7.98
2018-05-02T00:12:14.635Z,7.98
2018-05-02T00:13:14.181Z,8.00
2018-05-02T00:14:14.193Z,7.93
2018-05-02T00:15:14.207Z,8.02
2018-05-02T00:16:14.220Z,7.97
2018-05-02T00:17:14.234Z,7.92
2018-05-02T00:18:14.248Z,7.95
2018-05-02T00:19:14.265Z,7.95
2018-05-02T00:20:14.280Z,8.01
2018-05-02T00:21:14.290Z,8.00
2018-05-02T00:22:14.310Z,7.95
2018-05-02T00:23:14.319Z,7.92
2018-05-02T00:24:14.334Z,7.90
2018-05-02T00:25:14.351Z,7.87
2018-05-02T00:26:14.360Z,7.79
2018-05-02T00:27:14.376Z,7.83
2018-05-02T00:28:14.390Z,7.80
2018-05-02T00:29:14.402Z,7.80
2018-05-02T00:30:14.447Z,7.83
2018-05-02T00:31:14.468Z,7.80
2018-05-02T00:32:14.445Z,7.74
2018-05-02T00:33:14.490Z,7.55
2018-05-02T00:34:14.477Z,7.67
2018-05-02T00:35:14.493Z,7.64
2018-05-02T00:36:14.550Z,7.68
2018-05-02T00:37:14.556Z,7.74
2018-05-02T00:38:14.531Z,7.72
2018-05-02T00:39:14.543Z,7.80
2018-05-02T00:40:14.567Z,7.82
2018-05-02T00:41:14.723Z,7.85
2018-05-02T00:42:15.071Z,7.79
2018-05-02T00:43:14.600Z,7.87
2018-05-02T00:44:14.618Z,7.79
2018-05-02T00:45:14.627Z,7.60
2018-05-02T00:46:14.641Z,7.64
2018-05-02T00:47:14.655Z,7.67
2018-05-02T00:48:14.671Z,7.61
2018-05-02T00:49:14.690Z,7.67
2018-05-02T00:50:14.695Z,7.64
2018-05-02T00:51:14.726Z,7.64
2018-05-02T00:52:14.724Z,7.67
2018-05-02T00:53:14.738Z,7.52
2018-05-02T00:54:14.758Z,7.43
2018-05-02T00:55:14.768Z,7.46
2018-05-02T00:56:14.780Z,7.45
2018-05-02T00:57:14.795Z,7.43
2018-05-02T00:58:14.808Z,7.55
2018-05-02T00:59:14.824Z,7.53
2018-05-02T01:00:14.836Z,7.52
2018-05-02T01:01:14.849Z,7.64
2018-05-02T01:02:14.865Z,7.67
2018-05-02T01:03:14.876Z,7.61
2018-05-02T01:04:14.890Z,7.71
2018-05-02T01:05:14.906Z,7.60
2018-05-02T01:06:14.919Z,7.63
2018-05-02T01:07:14.987Z,7.63
2018-05-02T01:08:15.000Z,7.58
2018-05-02T01:09:14.961Z,7.74
2018-05-02T01:10:15.107Z,7.72
2018-05-02T01:12:15.246Z,7.61
2018-05-02T01:13:15.028Z,7.58
2018-05-02T01:14:15.036Z,7.61
2018-05-02T01:15:15.049Z,7.60
2018-05-02T01:16:15.057Z,7.50
2018-05-02T01:17:15.079Z,7.52
2018-05-02T01:18:15.085Z,7.46
2018-05-02T01:19:15.101Z,7.52
2018-05-02T01:20:15.121Z,7.50
2018-05-02T01:21:15.129Z,7.46
2018-05-02T01:22:15.140Z,7.45
2018-05-02T01:23:15.156Z,7.53
2018-05-02T01:24:15.170Z,7.39
2018-05-02T01:25:15.192Z,7.42
2018-05-02T01:26:15.198Z,7.34
2018-05-02T01:27:15.211Z,7.42
2018-05-02T01:28:15.229Z,7.57
2018-05-02T01:29:15.237Z,7.42
2018-05-02T01:30:15.251Z,7.46
2018-05-02T01:31:15.270Z,7.46
2018-05-02T01:32:15.280Z,7.45
2018-05-02T01:33:15.298Z,7.48
2018-05-02T01:34:15.307Z,7.42
2018-05-02T01:35:15.325Z,7.39
2018-05-02T01:36:15.335Z,7.27
2018-05-02T01:37:15.348Z,7.24
2018-05-02T01:38:15.368Z,7.20
2018-05-02T01:39:15.376Z,7.21
2018-05-02T01:40:15.390Z,7.21
2018-05-02T01:41:15.409Z,7.23
2018-05-02T01:42:15.418Z,7.09
2018-05-02T01:43:15.508Z,7.10
2018-05-02T01:44:15.688Z,7.10
2018-05-02T01:45:15.733Z,7.05
2018-05-02T01:46:15.470Z,7.06
2018-05-02T01:47:15.493Z,7.03
2018-05-02T01:48:15.503Z,7.06
2018-05-02T01:49:15.513Z,7.13
2018-05-02T01:50:15.528Z,7.02
2018-05-02T01:51:15.540Z,7.05
2018-05-02T01:52:15.556Z,7.05
2018-05-02T01:53:15.568Z,7.02
2018-05-02T01:54:15.588Z,6.94
2018-05-02T01:55:15.596Z,7.03
2018-05-02T01:56:15.611Z,7.06
2018-05-02T01:57:15.624Z,7.05
2018-05-02T01:58:15.644Z,6.99
2018-05-02T01:59:15.651Z,6.97
2018-05-02T02:00:15.666Z,6.98
2018-05-02T02:01:15.682Z,6.97
2018-05-02T02:02:15.693Z,6.94
2018-05-02T02:03:15.711Z,6.91
2018-05-02T02:04:15.720Z,6.98
2018-05-02T02:05:15.731Z,6.99
2018-05-02T02:06:15.755Z,7.02
2018-05-02T02:07:15.761Z,6.98
2018-05-02T02:08:15.773Z,6.94
2018-05-02T02:09:15.788Z,6.97
2018-05-02T02:10:15.797Z,7.03
2018-05-02T02:11:15.815Z,7.02
2018-05-02T02:12:15.831Z,7.02
2018-05-02T02:13:15.989Z,7.02
2018-05-02T02:14:15.853Z,7.06
2018-05-02T02:15:15.874Z,7.05
2018-05-02T02:16:15.884Z,7.07
2018-05-02T02:17:15.898Z,7.13
2018-05-02T02:18:15.910Z,7.15
2018-05-02T02:19:15.924Z,7.12
2018-05-02T02:20:15.936Z,7.05
2018-05-02T02:21:15.951Z,7.15
2018-05-02T02:22:15.964Z,6.99
2018-05-02T02:23:15.980Z,7.05
2018-05-02T02:24:15.988Z,7.02
2018-05-02T02:25:16.009Z,7.03
2018-05-02T02:26:16.018Z,7.05
2018-05-02T02:27:16.032Z,7.12
2018-05-02T02:28:16.046Z,7.16
2018-05-02T02:29:16.058Z,7.09
2018-05-02T02:30:16.083Z,7.10
2018-05-02T02:31:16.088Z,7.15
2018-05-02T02:32:16.099Z,7.05
2018-05-02T02:33:16.111Z,6.91
2018-05-02T02:34:16.146Z,6.89
2018-05-02T02:35:16.138Z,6.81
2018-05-02T02:36:16.152Z,6.91
2018-05-02T02:37:16.172Z,6.88
2018-05-02T02:38:16.182Z,6.97
2018-05-02T02:39:16.194Z,6.89
2018-05-02T02:40:16.212Z,6.97
2018-05-02T02:41:16.221Z,6.98
2018-05-02T02:42:16.235Z,7.05
2018-05-02T02:43:16.252Z,6.94
2018-05-02T02:44:16.263Z,6.98
2018-05-02T02:45:16.275Z,6.94
2018-05-02T02:46:16.321Z,6.97
2018-05-02T02:47:16.328Z,6.97
2018-05-02T02:48:16.315Z,6.99
2018-05-02T02:49:16.357Z,7.03
2018-05-02T02:50:16.348Z,6.89
2018-05-02T02:51:16.356Z,7.02
2018-05-02T02:52:16.386Z,6.99
2018-05-02T02:53:16.384Z,6.95
2018-05-02T02:54:16.396Z,6.89
2018-05-02T02:55:16.453Z,6.95
2018-05-02T02:56:16.425Z,6.88
2018-05-02T02:57:16.436Z,6.92
2018-05-02T02:58:16.451Z,6.88
2018-05-02T02:59:16.476Z,6.77
2018-05-02T03:00:16.480Z,6.89
2018-05-02T03:01:16.491Z,6.94
2018-05-02T03:02:16.507Z,6.87
2018-05-02T03:03:16.520Z,6.91
2018-05-02T03:04:16.540Z,6.85
2018-05-02T03:05:16.545Z,6.84
2018-05-02T03:06:16.561Z,6.92
2018-05-02T03:07:16.574Z,6.85
2018-05-02T03:08:16.586Z,6.89
2018-05-02T03:09:16.598Z,6.85
2018-05-02T03:10:16.613Z,6.77
2018-05-02T03:11:16.626Z,6.74
2018-05-02T03:12:16.640Z,6.73
2018-05-02T03:13:16.651Z,6.73
2018-05-02T03:14:16.666Z,6.69
2018-05-02T03:15:16.686Z,6.61
2018-05-02T03:16:16.697Z,6.64
2018-05-02T03:17:16.706Z,6.69
2018-05-02T03:18:16.723Z,6.58
2018-05-02T03:19:16.732Z,6.71
2018-05-02T03:20:16.806Z,6.62
2018-05-02T03:21:16.761Z,6.61
2018-05-02T03:22:16.772Z,6.66
2018-05-02T03:23:16.787Z,6.58
2018-05-02T03:24:16.799Z,6.54
2018-05-02T03:25:16.829Z,6.54
2018-05-02T03:26:16.827Z,6.61
2018-05-02T03:27:16.844Z,6.73
2018-05-02T03:28:16.853Z,6.70
2018-05-02T03:29:16.868Z,6.66
2018-05-02T03:30:16.881Z,6.54
2018-05-02T03:31:16.899Z,6.55
2018-05-02T03:32:16.908Z,6.49
2018-05-02T03:33:16.921Z,6.49
2018-05-02T03:34:16.935Z,6.51
2018-05-02T03:35:16.948Z,6.46
2018-05-02T03:36:16.958Z,6.52
2018-05-02T03:37:16.972Z,6.40
2018-05-02T03:38:16.988Z,6.49
2018-05-02T03:39:17.005Z,6.49
2018-05-02T03:40:17.013Z,6.46
2018-05-02T03:41:17.029Z,6.43
2018-05-02T03:42:17.243Z,6.52
2018-05-02T03:43:17.057Z,6.43
2018-05-02T03:44:17.070Z,6.46
2018-05-02T03:45:17.079Z,6.40
2018-05-02T03:46:17.094Z,6.48
2018-05-02T03:47:17.110Z,6.41
2018-05-02T03:48:17.121Z,6.48
2018-05-02T03:49:17.133Z,6.51
2018-05-02T03:50:17.148Z,6.46
2018-05-02T03:51:17.166Z,6.41
2018-05-02T03:52:17.181Z,6.40
2018-05-02T03:53:17.199Z,6.43
2018-05-02T03:54:17.263Z,6.46
2018-05-02T03:55:17.214Z,6.46
2018-05-02T03:56:17.225Z,6.54
2018-05-02T03:57:17.241Z,6.49
2018-05-02T03:58:17.253Z,6.49
2018-05-02T03:59:17.266Z,6.46
2018-05-02T04:00:17.277Z,6.34
2018-05-02T04:01:17.397Z,6.40
2018-05-02T04:02:17.313Z,6.33
2018-05-02T04:03:17.320Z,6.27
2018-05-02T04:04:17.327Z,6.18
2018-05-02T04:05:17.338Z,6.18
2018-05-02T04:06:17.357Z,6.17
2018-05-02T04:07:17.367Z,6.17
2018-05-02T04:08:17.385Z,6.19
2018-05-02T04:09:17.394Z,6.17
2018-05-02T04:10:17.405Z,6.18
2018-05-02T04:11:17.426Z,6.15
2018-05-02T04:12:17.432Z,6.25
2018-05-02T04:13:17.448Z,6.28
2018-05-02T04:14:17.457Z,6.44
2018-05-02T04:15:17.471Z,6.40
2018-05-02T04:16:17.485Z,6.34
2018-05-02T04:17:17.498Z,6.43
2018-05-02T04:18:17.514Z,6.46
2018-05-02T04:19:17.524Z,6.48
2018-05-02T04:20:17.535Z,6.43
2018-05-02T04:21:17.549Z,6.46
2018-05-02T04:22:17.563Z,6.46
2018-05-02T04:23:17.580Z,6.38
2018-05-02T04:24:17.588Z,6.30
2018-05-02T04:25:17.603Z,6.33
2018-05-02T04:26:17.621Z,6.38
2018-05-02T04:27:17.630Z,6.37
2018-05-02T04:28:17.643Z,6.41
2018-05-02T04:29:17.656Z,6.40
2018-05-02T04:30:17.682Z,6.27
2018-05-02T04:31:17.687Z,6.43
2018-05-02T04:32:17.696Z,6.38
2018-05-02T04:33:17.712Z,6.43
2018-05-02T04:34:17.721Z,6.44
2018-05-02T04:35:17.734Z,6.38
2018-05-02T04:36:17.749Z,6.40
2018-05-02T04:37:17.771Z,6.48
2018-05-02T04:38:17.777Z,6.51
2018-05-02T04:39:17.788Z,6.33
2018-05-02T04:40:17.851Z,6.33
2018-05-02T04:41:17.817Z,6.43
2018-05-02T04:42:17.825Z,6.51
2018-05-02T04:44:18.390Z,6.40
2018-05-02T04:45:17.865Z,6.44
2018-05-02T04:46:17.879Z,6.43
2018-05-02T04:47:17.895Z,6.49
2018-05-02T04:48:17.905Z,6.51
2018-05-02T04:49:17.917Z,6.43
2018-05-02T04:50:17.931Z,6.37
2018-05-02T04:51:17.946Z,6.38
2018-05-02T04:52:17.968Z,6.28
2018-05-02T04:53:17.975Z,6.37
2018-05-02T04:54:17.985Z,6.43
2018-05-02T04:55:18.011Z,6.38
2018-05-02T04:56:19.664Z,6.37
2018-05-02T04:57:18.040Z,6.48
2018-05-02T04:58:18.129Z,6.46
2018-05-02T04:59:18.051Z,6.46
2018-05-02T05:00:18.067Z,6.43
2018-05-02T05:01:18.091Z,6.48
2018-05-02T05:02:18.095Z,6.36
2018-05-02T05:03:18.105Z,6.44
2018-05-02T05:04:18.115Z,6.51
2018-05-02T05:05:18.131Z,6.48
2018-05-02T05:06:18.147Z,6.56
2018-05-02T05:07:18.155Z,6.58
2018-05-02T05:08:18.168Z,6.70
2018-05-02T05:09:18.185Z,6.73
2018-05-02T05:10:18.196Z,6.80
2018-05-02T05:11:18.212Z,6.80
2018-05-02T05:12:18.268Z,6.79
2018-05-02T05:13:18.239Z,6.76
2018-05-02T05:14:18.249Z,6.74
2018-05-02T05:15:18.262Z,6.77
2018-05-02T05:16:18.276Z,6.74
2018-05-02T05:17:18.287Z,6.73
2018-05-02T05:18:18.302Z,6.91
2018-05-02T05:19:18.314Z,6.92
2018-05-02T05:20:18.329Z,6.92
2018-05-02T05:21:18.341Z,6.98
2018-05-02T05:22:18.354Z,6.97
2018-05-02T05:23:18.368Z,7.03
2018-05-02T05:24:18.380Z,7.05
2018-05-02T05:25:18.399Z,7.13
2018-05-02T05:26:18.409Z,7.23
2018-05-02T05:27:18.432Z,7.20
2018-05-02T05:28:18.467Z,7.30
2018-05-02T05:29:18.451Z,7.32
2018-05-02T05:30:18.481Z,7.31
2018-05-02T05:31:18.478Z,7.31
2018-05-02T05:32:18.494Z,7.28
2018-05-02T05:33:18.530Z,7.34
2018-05-02T05:34:18.524Z,7.48
2018-05-02T05:35:18.610Z,7.85
2018-05-02T05:36:18.544Z,8.16
2018-05-02T05:37:18.558Z,8.38
2018-05-02T05:38:18.572Z,8.66
2018-05-02T05:39:18.889Z,8.81
2018-05-02T05:40:18.598Z,9.01
2018-05-02T05:41:18.614Z,9.14
2018-05-02T05:42:18.654Z,9.32
2018-05-02T05:43:18.640Z,9.40
2018-05-02T05:44:18.654Z,9.42
2018-05-02T05:45:18.670Z,9.36
2018-05-02T05:46:18.688Z,9.26
2018-05-02T05:47:18.727Z,9.15
2018-05-02T05:48:18.714Z,9.24
2018-05-02T05:49:18.727Z,9.35
2018-05-02T05:50:18.741Z,9.24
2018-05-02T05:51:18.761Z,9.10
2018-05-02T05:52:18.769Z,8.89
2018-05-02T05:53:18.785Z,8.66
2018-05-02T05:54:18.890Z,8.56
2018-05-02T05:55:18.828Z,8.38
2018-05-02T05:56:18.846Z,8.36
2018-05-02T05:57:18.846Z,8.22
2018-05-02T05:58:18.861Z,8.25
2018-05-02T05:59:18.885Z,8.12
2018-05-02T06:00:18.892Z,8.19
2018-05-02T06:01:18.901Z,8.23
2018-05-02T06:02:18.916Z,8.26
2018-05-02T06:03:18.934Z,8.37
2018-05-02T06:04:18.944Z,8.36
2018-05-02T06:05:18.960Z,8.38
2018-05-02T06:06:19.092Z,8.55
2018-05-02T06:07:18.987Z,8.52
2018-05-02T06:08:19.012Z,8.59
2018-05-02T06:09:19.018Z,8.55
2018-05-02T06:10:20.097Z,8.76
2018-05-02T06:11:19.055Z,8.71
2018-05-02T06:12:19.070Z,8.80
2018-05-02T06:13:19.075Z,8.77
2018-05-02T06:14:19.089Z,8.74
2018-05-02T06:15:19.111Z,8.77
2018-05-02T06:16:19.117Z,8.79
2018-05-02T06:17:19.135Z,8.81
2018-05-02T06:18:19.146Z,8.91
2018-05-02T06:19:19.175Z,8.98
2018-05-02T06:20:19.179Z,8.96
2018-05-02T06:21:19.191Z,9.05
2018-05-02T06:22:19.203Z,9.08
2018-05-02T06:23:19.219Z,9.05
2018-05-02T06:24:19.234Z,9.17
2018-05-02T06:25:19.248Z,9.13
2018-05-02T06:26:19.263Z,9.20
2018-05-02T06:27:19.281Z,9.21
2018-05-02T06:28:19.300Z,9.33
2018-05-02T06:29:19.312Z,9.31
2018-05-02T06:30:19.326Z,9.40
2018-05-02T06:31:19.366Z,9.40
2018-05-02T06:32:19.354Z,9.48
2018-05-02T06:33:19.366Z,9.51
2018-05-02T06:34:19.379Z,9.47
2018-05-02T06:35:19.400Z,9.53
2018-05-02T06:36:19.404Z,9.48
2018-05-02T06:37:19.417Z,9.56
2018-05-02T06:38:19.448Z,9.60
2018-05-02T06:39:19.447Z,9.65
2018-05-02T06:40:19.461Z,9.66
2018-05-02T06:41:19.472Z,9.66
2018-05-02T06:42:19.488Z,9.75
2018-05-02T06:43:19.513Z,9.86
2018-05-02T06:44:19.516Z,9.78
2018-05-02T06:45:19.532Z,9.79
2018-05-02T06:46:19.545Z,9.99
2018-05-02T06:47:19.559Z,9.96
2018-05-02T06:48:19.574Z,9.93
2018-05-02T06:49:19.647Z,10.01
2018-05-02T06:50:19.689Z,10.08
2018-05-02T06:51:19.619Z,10.22
2018-05-02T06:52:19.634Z,10.23
2018-05-02T06:53:19.649Z,10.20
2018-05-02T06:54:19.670Z,10.27
2018-05-02T06:55:20.064Z,10.22
2018-05-02T06:56:19.692Z,10.36
2018-05-02T06:57:19.721Z,10.30
2018-05-02T06:58:19.721Z,10.36
2018-05-02T06:59:19.758Z,10.44
2018-05-02T07:00:19.760Z,10.48
2018-05-02T07:01:20.134Z,10.52
2018-05-02T07:02:21.108Z,10.61
2018-05-02T07:03:19.795Z,10.51
2018-05-02T07:04:19.868Z,10.60
2018-05-02T07:05:19.963Z,10.60
2018-05-02T07:06:20.002Z,10.66
2018-05-02T07:07:19.870Z,10.66
2018-05-02T07:08:19.891Z,10.61
2018-05-02T07:09:19.883Z,10.60
2018-05-02T07:10:20.652Z,10.78
2018-05-02T07:11:19.919Z,10.70
2018-05-02T07:12:19.926Z,10.81
2018-05-02T07:13:19.944Z,10.81
2018-05-02T07:14:19.957Z,10.92
2018-05-02T07:15:19.979Z,10.94
2018-05-02T07:16:19.989Z,10.89
2018-05-02T07:17:20.010Z,10.99
2018-05-02T07:18:20.020Z,11.03
2018-05-02T07:19:20.039Z,11.00
2018-05-02T07:20:20.052Z,10.96
2018-05-02T07:21:20.062Z,11.07
2018-05-02T07:22:20.075Z,11.11
2018-05-02T07:23:20.117Z,11.28
2018-05-02T07:24:20.108Z,11.28
2018-05-02T07:25:20.123Z,11.32
2018-05-02T07:26:20.135Z,11.36
2018-05-02T07:27:20.160Z,11.39
2018-05-02T07:28:20.169Z,11.49
2018-05-02T07:29:20.180Z,11.49
2018-05-02T07:30:20.194Z,11.54
2018-05-02T07:31:20.216Z,11.60
2018-05-02T07:32:20.224Z,11.65
2018-05-02T07:33:21.484Z,11.57
2018-05-02T07:34:20.259Z,11.57
2018-05-02T07:35:20.271Z,11.69
2018-05-02T07:36:20.290Z,11.80
2018-05-02T07:37:20.301Z,11.78
2018-05-02T07:38:20.315Z,11.83
2018-05-02T07:39:20.332Z,11.85
2018-05-02T07:40:20.364Z,11.95
2018-05-02T07:41:20.359Z,12.02
2018-05-02T07:42:20.383Z,12.13
2018-05-02T07:43:20.400Z,12.10
2018-05-02T07:44:20.408Z,12.10
2018-05-02T07:45:20.425Z,12.17
2018-05-02T07:46:20.438Z,12.19
2018-05-02T07:47:20.503Z,12.32
2018-05-02T07:48:20.467Z,12.28
2018-05-02T07:49:20.492Z,12.34
2018-05-02T07:50:20.499Z,12.35
2018-05-02T07:51:20.731Z,12.42
2018-05-02T07:52:21.183Z,12.45
2018-05-02T07:53:20.545Z,12.49
2018-05-02T07:54:20.558Z,12.53
2018-05-02T07:55:20.582Z,12.64
2018-05-02T07:56:20.601Z,12.60
2018-05-02T07:57:20.603Z,12.62
2018-05-02T07:58:20.622Z,12.59
2018-05-02T07:59:20.653Z,12.65
2018-05-02T08:00:20.661Z,12.72
2018-05-02T08:01:20.672Z,12.71
2018-05-02T08:02:20.729Z,12.86
2018-05-02T08:03:20.754Z,12.78
2018-05-02T08:04:20.731Z,12.75
2018-05-02T08:05:20.752Z,12.79
2018-05-02T08:06:20.859Z,12.86
2018-05-02T08:07:20.757Z,12.87
2018-05-02T08:08:20.923Z,12.86
2018-05-02T08:09:20.837Z,12.95
2018-05-02T08:10:20.809Z,13.00
2018-05-02T08:11:20.827Z,13.05
2018-05-02T08:12:20.917Z,12.96
2018-05-02T08:13:20.853Z,13.05
2018-05-02T08:14:20.894Z,13.10
2018-05-02T08:15:20.880Z,13.12
2018-05-02T08:16:20.925Z,13.14
2018-05-02T08:17:20.924Z,13.15
2018-05-02T08:18:20.934Z,13.29
2018-05-02T08:19:20.947Z,13.25
2018-05-02T08:20:20.978Z,13.20
2018-05-02T08:21:21.241Z,13.33
2018-05-02T08:22:21.078Z,13.38
2018-05-02T08:23:21.220Z,13.41
2018-05-02T08:24:21.109Z,13.33
2018-05-02T08:25:21.048Z,13.32
2018-05-02T08:26:21.056Z,13.38
2018-05-02T08:27:21.068Z,13.46
2018-05-02T08:28:21.080Z,13.46
2018-05-02T08:29:21.093Z,13.45
2018-05-02T08:30:21.111Z,13.44
2018-05-02T08:31:21.239Z,13.39
2018-05-02T08:32:21.141Z,13.48
2018-05-02T08:33:21.161Z,13.48
2018-05-02T08:34:21.173Z,13.55
2018-05-02T08:35:21.196Z,13.33
2018-05-02T08:36:21.203Z,13.44
2018-05-02T08:37:21.218Z,13.51
2018-05-02T08:38:21.235Z,13.57
2018-05-02T08:39:21.251Z,13.60
2018-05-02T08:40:21.266Z,13.66
2018-05-02T08:41:21.282Z,13.63
2018-05-02T08:42:21.298Z,13.62
2018-05-02T08:43:21.316Z,13.73
2018-05-02T08:44:21.883Z,13.71
2018-05-02T08:45:21.365Z,13.71
2018-05-02T08:46:21.370Z,13.84
2018-05-02T08:47:21.375Z,13.91
2018-05-02T08:48:21.395Z,13.96
2018-05-02T08:49:21.405Z,14.10
2018-05-02T08:50:21.424Z,14.04
2018-05-02T08:51:21.643Z,14.04
2018-05-02T08:52:21.453Z,14.09
2018-05-02T08:53:21.468Z,14.14
2018-05-02T08:54:21.489Z,14.25
2018-05-02T08:55:21.500Z,14.36
2018-05-02T08:56:21.519Z,14.46
2018-05-02T08:57:21.573Z,14.47
2018-05-02T08:58:21.555Z,14.36
2018-05-02T08:59:21.569Z,14.35
2018-05-02T09:00:21.580Z,14.32
2018-05-02T09:01:21.596Z,14.20
2018-05-02T09:02:21.613Z,14.29
2018-05-02T09:03:21.631Z,14.24
2018-05-02T09:04:21.644Z,14.22
2018-05-02T09:05:21.660Z,14.42
2018-05-02T09:06:21.686Z,14.32
2018-05-02T09:07:21.695Z,14.46
2018-05-02T09:08:21.708Z,14.50
2018-05-02T09:09:21.727Z,14.60
2018-05-02T09:10:21.746Z,14.58
2018-05-02T09:11:21.759Z,14.50
2018-05-02T09:12:21.771Z,14.61
2018-05-02T09:13:21.801Z,14.80
2018-05-02T09:14:21.812Z,14.86
2018-05-02T09:15:21.821Z,14.96
2018-05-02T09:16:21.838Z,14.88
2018-05-02T09:17:21.888Z,14.78
2018-05-02T09:18:21.872Z,14.70
2018-05-02T09:19:21.905Z,14.69
2018-05-02T09:20:21.908Z,14.69
2018-05-02T09:21:21.935Z,14.89
2018-05-02T09:22:21.937Z,14.92
2018-05-02T09:23:21.950Z,14.95
2018-05-02T09:24:21.971Z,15.06
2018-05-02T09:25:21.990Z,15.13
2018-05-02T09:26:22.000Z,15.06
2018-05-02T09:27:22.014Z,15.07
2018-05-02T09:28:22.037Z,15.03
2018-05-02T09:29:22.045Z,14.91
2018-05-02T09:30:22.071Z,15.01
2018-05-02T09:31:23.652Z,14.92
2018-05-02T09:32:22.105Z,15.03
2018-05-02T09:33:22.114Z,15.10
2018-05-02T09:34:22.127Z,15.17
2018-05-02T09:35:22.150Z,15.10
2018-05-02T09:36:22.173Z,15.17
2018-05-02T09:37:22.180Z,15.23
2018-05-02T09:38:22.197Z,15.23
2018-05-02T09:39:22.207Z,15.01
2018-05-02T09:40:22.224Z,14.99
2018-05-02T09:41:22.239Z,14.95
2018-05-02T09:42:22.252Z,14.91
2018-05-02T09:43:22.271Z,15.03
2018-05-02T09:44:22.287Z,14.91
2018-05-02T09:45:22.302Z,14.98
2018-05-02T09:46:22.322Z,14.99
2018-05-02T09:47:22.336Z,14.99
2018-05-02T09:48:22.453Z,15.11
2018-05-02T09:49:22.370Z,15.07
2018-05-02T09:50:22.382Z,15.20
2018-05-02T09:51:22.402Z,15.35
2018-05-02T09:52:22.426Z,15.44
2018-05-02T09:53:22.433Z,15.43
2018-05-02T09:54:22.455Z,15.43
2018-05-02T09:55:22.523Z,15.60
2018-05-02T09:56:22.481Z,15.71
2018-05-02T09:57:22.499Z,15.76
2018-05-02T09:58:22.519Z,15.75
2018-05-02T09:59:22.530Z,15.65
2018-05-02T10:00:22.548Z,15.53
2018-05-02T10:01:22.568Z,15.59
2018-05-02T10:02:22.663Z,15.57
2018-05-02T10:03:22.607Z,15.68
2018-05-02T10:04:22.685Z,15.69
2018-05-02T10:05:22.630Z,15.75
2018-05-02T10:06:22.647Z,16.01
2018-05-02T10:07:22.670Z,16.04
2018-05-02T10:08:22.689Z,16.08
2018-05-02T10:09:22.705Z,16.23
2018-05-02T10:10:22.711Z,16.34
2018-05-02T10:11:22.734Z,16.05
2018-05-02T10:12:23.061Z,16.07
2018-05-02T10:13:22.762Z,15.97
2018-05-02T10:14:22.780Z,16.05
2018-05-02T10:15:22.798Z,16.07
2018-05-02T10:16:22.812Z,16.41
2018-05-02T10:17:22.829Z,16.50
2018-05-02T10:18:22.913Z,16.48
2018-05-02T10:19:22.861Z,16.49
2018-05-02T10:20:22.879Z,16.48
2018-05-02T10:21:22.955Z,16.53
2018-05-02T10:22:22.920Z,16.61
2018-05-02T10:23:22.932Z,16.49
2018-05-02T10:24:22.948Z,16.46
2018-05-02T10:25:22.961Z,16.39
2018-05-02T10:26:23.069Z,16.24
2018-05-02T10:27:23.007Z,16.35
2018-05-02T10:28:23.035Z,16.35
2018-05-02T10:29:23.165Z,16.50
2018-05-02T10:30:23.058Z,16.56
2018-05-02T10:31:23.069Z,16.70
2018-05-02T10:32:23.085Z,16.64
2018-05-02T10:33:23.095Z,16.73
2018-05-02T10:34:23.128Z,16.57
2018-05-02T10:35:23.128Z,16.45
2018-05-02T10:36:23.146Z,16.57
2018-05-02T10:37:23.184Z,16.63
2018-05-02T10:38:23.244Z,16.33
2018-05-02T10:39:27.031Z,16.00
2018-05-02T10:41:23.233Z,15.83
2018-05-02T10:42:23.251Z,15.94
2018-05-02T10:43:23.285Z,16.08
2018-05-02T10:44:23.282Z,16.23
2018-05-02T10:45:23.791Z,16.24
2018-05-02T10:46:23.902Z,16.27
2018-05-02T10:47:23.348Z,16.35
2018-05-02T10:48:23.346Z,16.45
2018-05-02T10:49:23.360Z,16.60
2018-05-02T10:51:15.795Z,16.71
2018-05-02T10:51:23.699Z,16.82
2018-05-02T10:52:23.626Z,16.83
2018-05-02T10:53:23.445Z,16.94
2018-05-02T10:54:23.462Z,17.01
2018-05-02T10:55:23.467Z,17.03
2018-05-02T10:56:23.485Z,17.18
2018-05-02T10:57:23.496Z,17.31
2018-05-02T10:58:23.507Z,17.43
2018-05-02T10:59:23.530Z,17.52
2018-05-02T11:00:23.541Z,17.31
2018-05-02T11:01:23.561Z,17.18
2018-05-02T11:02:23.575Z,17.15
2018-05-02T11:03:23.603Z,17.19
2018-05-02T11:04:23.606Z,17.04
2018-05-02T11:05:23.814Z,17.00
2018-05-02T11:06:24.219Z,16.98
2018-05-02T11:07:23.908Z,17.18
2018-05-02T11:08:23.798Z,17.28
2018-05-02T11:09:23.689Z,17.21
2018-05-02T11:10:23.711Z,17.18
2018-05-02T11:13:27.319Z,17.23
2018-05-02T11:15:24.005Z,17.23
2018-05-02T11:17:24.043Z,17.34
2018-05-02T11:18:28.122Z,17.44
2018-05-02T11:19:24.747Z,17.43
2018-05-02T11:20:28.031Z,17.55
2018-05-02T11:21:24.566Z,17.70
2018-05-02T11:22:23.913Z,17.66
2018-05-02T11:23:24.698Z,17.55
2018-05-02T11:24:23.950Z,17.62
2018-05-02T11:25:23.960Z,17.68
2018-05-02T11:26:23.975Z,17.79
2018-05-02T11:27:24.006Z,17.71
2018-05-02T11:28:24.076Z,17.74
2018-05-02T11:29:24.043Z,17.87
2018-05-02T11:30:24.053Z,17.97
2018-05-02T11:31:24.059Z,17.82
2018-05-02T11:32:25.544Z,17.77
2018-05-02T11:33:27.288Z,17.95
2018-05-02T11:34:24.109Z,17.99
2018-05-02T11:35:24.126Z,17.89
2018-05-02T11:36:24.169Z,17.87
2018-05-02T11:37:24.159Z,17.92
2018-05-02T11:38:24.177Z,18.03
2018-05-02T11:39:24.191Z,18.23
2018-05-02T11:40:24.213Z,18.21
2018-05-02T11:41:24.543Z,18.15
2018-05-02T11:42:24.255Z,18.08
2018-05-02T11:43:24.267Z,18.14
2018-05-02T11:44:24.282Z,18.12
2018-05-02T11:45:24.297Z,18.14
2018-05-02T11:46:24.316Z,18.10
2018-05-02T11:47:24.341Z,18.10
2018-05-02T11:48:24.352Z,18.10
2018-05-02T11:49:24.425Z,18.23
2018-05-02T11:50:24.384Z,18.11
2018-05-02T11:51:24.401Z,18.11
2018-05-02T11:52:24.427Z,18.07
2018-05-02T11:53:24.435Z,17.96
2018-05-02T11:54:24.455Z,18.08
2018-05-02T11:55:24.479Z,18.18
2018-05-02T11:56:24.503Z,18.14
2018-05-02T11:57:24.499Z,18.27
2018-05-02T11:58:24.519Z,18.39
2018-05-02T11:59:24.535Z,18.35
2018-05-02T12:00:24.562Z,18.32
2018-05-02T12:01:24.571Z,18.37
2018-05-02T12:02:24.600Z,18.44
2018-05-02T12:03:24.604Z,18.47
2018-05-02T12:04:24.624Z,18.62
2018-05-02T12:05:25.653Z,18.66
2018-05-02T12:06:24.658Z,18.65
2018-05-02T12:07:24.673Z,18.70
2018-05-02T12:08:25.567Z,18.70
2018-05-02T12:10:24.827Z,18.69
2018-05-02T12:11:24.744Z,18.92
2018-05-02T12:12:24.757Z,18.90
2018-05-02T12:13:24.774Z,18.67
2018-05-02T12:14:24.792Z,18.62
2018-05-02T12:15:24.814Z,18.72
2018-05-02T12:16:24.830Z,18.76
2018-05-02T12:17:24.845Z,18.70
2018-05-02T12:18:25.166Z,18.88
2018-05-02T12:19:24.897Z,19.14
2018-05-02T12:20:24.935Z,19.21
2018-05-02T12:21:24.914Z,19.33
2018-05-02T12:22:24.929Z,19.44
2018-05-02T12:23:24.961Z,19.36
2018-05-02T12:24:24.966Z,19.47
2018-05-02T12:25:24.992Z,19.47
2018-05-02T12:26:25.014Z,19.51
2018-05-02T12:27:25.073Z,19.40
2018-05-02T12:28:25.037Z,19.37
2018-05-02T12:30:25.249Z,19.14
2018-05-02T12:31:25.089Z,19.14
2018-05-02T12:32:25.105Z,19.23
2018-05-02T12:33:25.123Z,19.16
2018-05-02T12:34:25.140Z,19.25
2018-05-02T12:35:25.248Z,19.43
2018-05-02T12:36:25.185Z,19.46
2018-05-02T12:37:25.203Z,19.65
2018-05-02T12:38:25.219Z,19.51
2018-05-02T12:39:25.241Z,19.54
2018-05-02T12:40:25.252Z,19.32
2018-05-02T12:41:25.264Z,19.25
2018-05-02T12:42:25.284Z,19.26
2018-05-02T12:43:26.074Z,19.18
2018-05-02T12:44:25.325Z,19.31
2018-05-02T12:45:26.675Z,19.47
2018-05-02T12:46:25.579Z,19.50
2018-05-02T12:47:25.382Z,19.65
2018-05-02T12:48:25.395Z,19.76
2018-05-02T12:49:25.411Z,19.61
2018-05-02T12:50:25.578Z,19.54
2018-05-02T12:51:25.447Z,19.58
2018-05-02T12:52:25.468Z,19.65
2018-05-02T12:53:25.484Z,19.63
2018-05-02T12:54:25.525Z,19.55
2018-05-02T12:55:25.522Z,19.54
2018-05-02T12:56:25.538Z,19.48
2018-05-02T12:57:25.660Z,19.31
2018-05-02T12:58:25.629Z,19.55
2018-05-02T12:59:25.631Z,19.62
2018-05-02T13:00:25.612Z,19.84
2018-05-02T13:01:25.633Z,19.94
2018-05-02T13:03:25.675Z,19.83
2018-05-02T13:04:25.735Z,19.99
2018-05-02T13:05:25.704Z,20.17
2018-05-02T13:06:25.727Z,20.13
2018-05-02T13:07:25.748Z,20.18
2018-05-02T13:08:25.789Z,20.20
2018-05-02T13:09:26.479Z,20.08
2018-05-02T13:10:25.805Z,20.21
2018-05-02T13:11:25.834Z,20.43
2018-05-02T13:12:25.840Z,20.66
2018-05-02T13:13:25.858Z,20.77
2018-05-02T13:14:25.899Z,20.61
2018-05-02T13:15:26.447Z,20.72
2018-05-02T13:16:26.943Z,20.82